sensor_id;sensor_type;location;lat;lon;timestamp;P1;durP1;ratioP1;P2;durP2;ratioP2
51692;SDS011;37777;53.066;21.638;2023-12-20T00:06:41;27.05;;;23.13;;
51692;SDS011;37777;53.066;21.638;2023-12-20T00:13:43;24.42;;;21.08;;
51692;SDS011;37777;53.066;21.638;2023-12-20T00:20:47;24.98;;;22.27;;
51692;SDS011;37777;53.066;21.638;2023-12-20T00:27:48;21.85;;;19.60;;
51692;SDS011;37777;53.066;21.638;2023-12-20T00:34:50;21.75;;;19.75;;
51692;SDS011;37777;53.066;21.638;2023-12-20T00:41:52;25.35;;;22.35;;
51692;SDS011;37777;53.066;21.638;2023-12-20T00:48:53;24.38;;;20.98;;
51692;SDS011;37777;53.066;21.638;2023-12-20T00:55:55;24.60;;;20.05;;
51692;SDS011;37777;53.066;21.638;2023-12-20T01:02:56;24.73;;;21.45;;
51692;SDS011;37777;53.066;21.638;2023-12-20T01:09:58;25.00;;;21.08;;
51692;SDS011;37777;53.066;21.638;2023-12-20T01:16:59;24.88;;;22.23;;
51692;SDS011;37777;53.066;21.638;2023-12-20T01:24:01;23.95;;;21.25;;
51692;SDS011;37777;53.066;21.638;2023-12-20T01:31:02;21.35;;;19.25;;
51692;SDS011;37777;53.066;21.638;2023-12-20T01:38:05;21.83;;;19.63;;
51692;SDS011;37777;53.066;21.638;2023-12-20T01:45:06;22.65;;;19.35;;
51692;SDS011;37777;53.066;21.638;2023-12-20T01:52:08;24.17;;;19.48;;
51692;SDS011;37777;53.066;21.638;2023-12-20T01:59:13;19.90;;;17.80;;
51692;SDS011;37777;53.066;21.638;2023-12-20T02:06:14;19.17;;;17.35;;
51692;SDS011;37777;53.066;21.638;2023-12-20T02:13:16;22.75;;;20.45;;
51692;SDS011;37777;53.066;21.638;2023-12-20T02:20:17;19.55;;;17.67;;
51692;SDS011;37777;53.066;21.638;2023-12-20T02:27:19;21.77;;;19.45;;
51692;SDS011;37777;53.066;21.638;2023-12-20T02:34:20;21.45;;;19.38;;
51692;SDS011;37777;53.066;21.638;2023-12-20T02:41:22;23.55;;;21.17;;
51692;SDS011;37777;53.066;21.638;2023-12-20T02:48:24;22.05;;;19.88;;
51692;SDS011;37777;53.066;21.638;2023-12-20T02:55:25;21.05;;;19.05;;
51692;SDS011;37777;53.066;21.638;2023-12-20T03:02:27;21.25;;;19.30;;
51692;SDS011;37777;53.066;21.638;2023-12-20T03:09:28;22.20;;;20.00;;
51692;SDS011;37777;53.066;21.638;2023-12-20T03:16:38;19.30;;;17.30;;
51692;SDS011;37777;53.066;21.638;2023-12-20T03:23:40;18.13;;;16.50;;
51692;SDS011;37777;53.066;21.638;2023-12-20T03:30:42;18.45;;;16.63;;
51692;SDS011;37777;53.066;21.638;2023-12-20T03:37:43;19.25;;;17.63;;
51692;SDS011;37777;53.066;21.638;2023-12-20T03:44:45;20.55;;;18.73;;
51692;SDS011;37777;53.066;21.638;2023-12-20T03:51:47;19.42;;;17.85;;
51692;SDS011;37777;53.066;21.638;2023-12-20T03:58:48;19.90;;;18.10;;
51692;SDS011;37777;53.066;21.638;2023-12-20T04:05:50;21.38;;;19.20;;
51692;SDS011;37777;53.066;21.638;2023-12-20T04:12:51;19.52;;;17.90;;
51692;SDS011;37777;53.066;21.638;2023-12-20T04:19:52;21.27;;;19.38;;
51692;SDS011;37777;53.066;21.638;2023-12-20T04:26:54;18.60;;;16.95;;
51692;SDS011;37777;53.066;21.638;2023-12-20T04:33:56;21.33;;;19.35;;
51692;SDS011;37777;53.066;21.638;2023-12-20T04:40:57;19.48;;;17.67;;
51692;SDS011;37777;53.066;21.638;2023-12-20T04:48:07;18.02;;;16.23;;
51692;SDS011;37777;53.066;21.638;2023-12-20T04:55:09;19.02;;;17.30;;
51692;SDS011;37777;53.066;21.638;2023-12-20T05:02:11;18.60;;;16.80;;
51692;SDS011;37777;53.066;21.638;2023-12-20T05:09:14;19.55;;;17.85;;
51692;SDS011;37777;53.066;21.638;2023-12-20T05:16:15;20.50;;;18.42;;
51692;SDS011;37777;53.066;21.638;2023-12-20T05:23:19;22.60;;;20.30;;
51692;SDS011;37777;53.066;21.638;2023-12-20T05:30:21;26.38;;;19.60;;
51692;SDS011;37777;53.066;21.638;2023-12-20T05:45:45;23.52;;;21.08;;
51692;SDS011;37777;53.066;21.638;2023-12-20T05:52:46;28.80;;;22.27;;
51692;SDS011;37777;53.066;21.638;2023-12-20T05:59:48;32.65;;;22.08;;
51692;SDS011;37777;53.066;21.638;2023-12-20T06:06:49;24.48;;;21.83;;
51692;SDS011;37777;53.066;21.638;2023-12-20T06:13:51;22.02;;;20.10;;
51692;SDS011;37777;53.066;21.638;2023-12-20T06:20:54;25.15;;;22.55;;
51692;SDS011;37777;53.066;21.638;2023-12-20T06:27:56;24.67;;;22.02;;
51692;SDS011;37777;53.066;21.638;2023-12-20T06:34:57;26.35;;;23.50;;
51692;SDS011;37777;53.066;21.638;2023-12-20T06:41:59;34.80;;;26.15;;
51692;SDS011;37777;53.066;21.638;2023-12-20T06:49:03;51.72;;;28.48;;
51692;SDS011;37777;53.066;21.638;2023-12-20T06:56:05;40.80;;;26.83;;
51692;SDS011;37777;53.066;21.638;2023-12-20T07:03:07;32.80;;;23.55;;
51692;SDS011;37777;53.066;21.638;2023-12-20T07:10:08;39.40;;;24.98;;
51692;SDS011;37777;53.066;21.638;2023-12-20T07:17:12;33.47;;;24.70;;
51692;SDS011;37777;53.066;21.638;2023-12-20T07:24:14;32.22;;;24.88;;
51692;SDS011;37777;53.066;21.638;2023-12-20T07:31:28;33.15;;;24.35;;
51692;SDS011;37777;53.066;21.638;2023-12-20T07:38:30;33.72;;;24.95;;
51692;SDS011;37777;53.066;21.638;2023-12-20T07:45:31;23.77;;;21.05;;
51692;SDS011;37777;53.066;21.638;2023-12-20T07:52:33;29.02;;;23.00;;
51692;SDS011;37777;53.066;21.638;2023-12-20T07:59:34;29.60;;;24.75;;
51692;SDS011;37777;53.066;21.638;2023-12-20T08:06:36;27.20;;;24.10;;
51692;SDS011;37777;53.066;21.638;2023-12-20T08:13:37;38.65;;;27.77;;
51692;SDS011;37777;53.066;21.638;2023-12-20T08:20:39;27.73;;;24.52;;
51692;SDS011;37777;53.066;21.638;2023-12-20T08:27:41;27.23;;;23.00;;
51692;SDS011;37777;53.066;21.638;2023-12-20T08:34:43;27.15;;;21.45;;
51692;SDS011;37777;53.066;21.638;2023-12-20T08:41:45;33.20;;;25.30;;
51692;SDS011;37777;53.066;21.638;2023-12-20T08:48:46;45.45;;;30.33;;
51692;SDS011;37777;53.066;21.638;2023-12-20T08:55:48;27.33;;;23.73;;
51692;SDS011;37777;53.066;21.638;2023-12-20T09:02:49;25.50;;;22.75;;
51692;SDS011;37777;53.066;21.638;2023-12-20T09:09:51;23.63;;;21.10;;
51692;SDS011;37777;53.066;21.638;2023-12-20T09:16:53;22.58;;;19.15;;
51692;SDS011;37777;53.066;21.638;2023-12-20T09:23:57;21.05;;;18.92;;
51692;SDS011;37777;53.066;21.638;2023-12-20T09:30:58;24.52;;;20.27;;
51692;SDS011;37777;53.066;21.638;2023-12-20T09:45:20;15.00;;;13.60;;
51692;SDS011;37777;53.066;21.638;2023-12-20T09:52:25;16.85;;;15.35;;
51692;SDS011;37777;53.066;21.638;2023-12-20T09:59:27;16.08;;;14.38;;
51692;SDS011;37777;53.066;21.638;2023-12-20T10:06:29;16.65;;;15.18;;
51692;SDS011;37777;53.066;21.638;2023-12-20T10:13:30;17.25;;;15.65;;
51692;SDS011;37777;53.066;21.638;2023-12-20T10:20:32;17.92;;;16.27;;
51692;SDS011;37777;53.066;21.638;2023-12-20T10:27:34;16.83;;;15.35;;
51692;SDS011;37777;53.066;21.638;2023-12-20T10:34:36;17.42;;;15.77;;
51692;SDS011;37777;53.066;21.638;2023-12-20T10:41:37;18.90;;;16.92;;
51692;SDS011;37777;53.066;21.638;2023-12-20T10:48:42;23.48;;;18.65;;
51692;SDS011;37777;53.066;21.638;2023-12-20T10:55:45;18.95;;;16.52;;
51692;SDS011;37777;53.066;21.638;2023-12-20T11:02:49;20.73;;;16.98;;
51692;SDS011;37777;53.066;21.638;2023-12-20T11:10:00;18.70;;;16.40;;
51692;SDS011;37777;53.066;21.638;2023-12-20T11:17:24;16.80;;;15.20;;
51692;SDS011;37777;53.066;21.638;2023-12-20T11:24:25;17.85;;;16.08;;
51692;SDS011;37777;53.066;21.638;2023-12-20T11:31:27;18.83;;;17.33;;
51692;SDS011;37777;53.066;21.638;2023-12-20T11:38:37;22.38;;;20.27;;
51692;SDS011;37777;53.066;21.638;2023-12-20T11:45:42;21.65;;;19.65;;
51692;SDS011;37777;53.066;21.638;2023-12-20T11:52:52;20.98;;;18.92;;
51692;SDS011;37777;53.066;21.638;2023-12-20T11:59:54;20.20;;;18.15;;
51692;SDS011;37777;53.066;21.638;2023-12-20T12:06:57;18.58;;;17.17;;
51692;SDS011;37777;53.066;21.638;2023-12-20T12:13:58;19.58;;;17.98;;
51692;SDS011;37777;53.066;21.638;2023-12-20T12:21:00;17.40;;;15.98;;
51692;SDS011;37777;53.066;21.638;2023-12-20T12:28:11;19.33;;;17.90;;
51692;SDS011;37777;53.066;21.638;2023-12-20T12:35:15;25.80;;;23.42;;
51692;SDS011;37777;53.066;21.638;2023-12-20T12:42:17;18.85;;;16.60;;
51692;SDS011;37777;53.066;21.638;2023-12-20T12:49:18;19.30;;;17.50;;
51692;SDS011;37777;53.066;21.638;2023-12-20T12:56:20;26.65;;;24.35;;
51692;SDS011;37777;53.066;21.638;2023-12-20T13:03:23;23.80;;;21.85;;
51692;SDS011;37777;53.066;21.638;2023-12-20T13:10:25;24.65;;;22.23;;
51692;SDS011;37777;53.066;21.638;2023-12-20T13:17:27;24.95;;;22.50;;
51692;SDS011;37777;53.066;21.638;2023-12-20T13:24:32;22.15;;;20.05;;
51692;SDS011;37777;53.066;21.638;2023-12-20T13:31:34;21.38;;;18.58;;
51692;SDS011;37777;53.066;21.638;2023-12-20T13:38:38;22.45;;;20.25;;
51692;SDS011;37777;53.066;21.638;2023-12-20T13:45:39;26.83;;;21.55;;
51692;SDS011;37777;53.066;21.638;2023-12-20T13:52:41;29.20;;;20.45;;
51692;SDS011;37777;53.066;21.638;2023-12-20T13:59:42;21.83;;;17.02;;
51692;SDS011;37777;53.066;21.638;2023-12-20T14:06:44;30.70;;;20.77;;
51692;SDS011;37777;53.066;21.638;2023-12-20T14:13:45;25.60;;;19.83;;
51692;SDS011;37777;53.066;21.638;2023-12-20T14:20:47;24.98;;;18.77;;
51692;SDS011;37777;53.066;21.638;2023-12-20T14:27:49;22.92;;;20.33;;
51692;SDS011;37777;53.066;21.638;2023-12-20T14:34:51;28.40;;;21.27;;
51692;SDS011;37777;53.066;21.638;2023-12-20T14:41:52;22.70;;;17.88;;
51692;SDS011;37777;53.066;21.638;2023-12-20T14:48:55;28.05;;;21.48;;
51692;SDS011;37777;53.066;21.638;2023-12-20T14:55:57;24.10;;;21.60;;
51692;SDS011;37777;53.066;21.638;2023-12-20T15:02:58;24.67;;;20.67;;
51692;SDS011;37777;53.066;21.638;2023-12-20T15:10:00;23.70;;;20.85;;
51692;SDS011;37777;53.066;21.638;2023-12-20T15:17:02;26.77;;;18.67;;
51692;SDS011;37777;53.066;21.638;2023-12-20T15:24:03;22.55;;;20.20;;
51692;SDS011;37777;53.066;21.638;2023-12-20T15:31:14;25.02;;;22.42;;
51692;SDS011;37777;53.066;21.638;2023-12-20T15:38:16;24.85;;;22.10;;
51692;SDS011;37777;53.066;21.638;2023-12-20T15:45:18;23.02;;;20.20;;
51692;SDS011;37777;53.066;21.638;2023-12-20T15:52:19;30.58;;;20.50;;
51692;SDS011;37777;53.066;21.638;2023-12-20T15:59:21;26.05;;;18.17;;
51692;SDS011;37777;53.066;21.638;2023-12-20T16:06:23;20.88;;;18.65;;
51692;SDS011;37777;53.066;21.638;2023-12-20T16:13:24;20.00;;;17.85;;
51692;SDS011;37777;53.066;21.638;2023-12-20T16:20:26;26.63;;;20.08;;
51692;SDS011;37777;53.066;21.638;2023-12-20T16:27:27;28.80;;;21.20;;
51692;SDS011;37777;53.066;21.638;2023-12-20T16:34:29;28.15;;;25.40;;
51692;SDS011;37777;53.066;21.638;2023-12-20T16:41:30;24.60;;;22.13;;
51692;SDS011;37777;53.066;21.638;2023-12-20T16:48:32;22.80;;;20.45;;
51692;SDS011;37777;53.066;21.638;2023-12-20T16:55:35;21.95;;;19.48;;
51692;SDS011;37777;53.066;21.638;2023-12-20T17:02:37;26.70;;;22.17;;
51692;SDS011;37777;53.066;21.638;2023-12-20T17:09:39;25.38;;;22.65;;
51692;SDS011;37777;53.066;21.638;2023-12-20T17:16:40;27.40;;;22.38;;
51692;SDS011;37777;53.066;21.638;2023-12-20T17:23:42;23.20;;;20.45;;
51692;SDS011;37777;53.066;21.638;2023-12-20T17:30:44;20.77;;;18.60;;
51692;SDS011;37777;53.066;21.638;2023-12-20T17:37:48;19.70;;;17.80;;
51692;SDS011;37777;53.066;21.638;2023-12-20T17:44:50;22.27;;;20.38;;
51692;SDS011;37777;53.066;21.638;2023-12-20T17:51:51;27.45;;;24.60;;
51692;SDS011;37777;53.066;21.638;2023-12-20T17:58:56;23.23;;;20.85;;
51692;SDS011;37777;53.066;21.638;2023-12-20T18:05:57;24.10;;;21.17;;
51692;SDS011;37777;53.066;21.638;2023-12-20T18:12:58;26.08;;;20.63;;
51692;SDS011;37777;53.066;21.638;2023-12-20T18:20:01;24.63;;;19.02;;
51692;SDS011;37777;53.066;21.638;2023-12-20T18:27:03;31.45;;;21.20;;
51692;SDS011;37777;53.066;21.638;2023-12-20T18:34:05;22.38;;;20.50;;
51692;SDS011;37777;53.066;21.638;2023-12-20T18:41:08;21.80;;;19.98;;
51692;SDS011;37777;53.066;21.638;2023-12-20T18:48:09;25.85;;;23.42;;
51692;SDS011;37777;53.066;21.638;2023-12-20T19:03:04;27.25;;;24.08;;
51692;SDS011;37777;53.066;21.638;2023-12-20T19:10:05;22.30;;;20.58;;
51692;SDS011;37777;53.066;21.638;2023-12-20T19:17:07;24.63;;;22.23;;
51692;SDS011;37777;53.066;21.638;2023-12-20T19:24:11;21.05;;;18.88;;
51692;SDS011;37777;53.066;21.638;2023-12-20T19:31:13;18.58;;;16.75;;
51692;SDS011;37777;53.066;21.638;2023-12-20T19:38:15;21.60;;;19.35;;
51692;SDS011;37777;53.066;21.638;2023-12-20T19:45:17;23.25;;;20.25;;
51692;SDS011;37777;53.066;21.638;2023-12-20T19:52:19;33.30;;;21.25;;
51692;SDS011;37777;53.066;21.638;2023-12-20T19:59:20;23.70;;;21.20;;
51692;SDS011;37777;53.066;21.638;2023-12-20T20:06:22;25.00;;;22.58;;
51692;SDS011;37777;53.066;21.638;2023-12-20T20:13:24;23.38;;;21.15;;
51692;SDS011;37777;53.066;21.638;2023-12-20T20:20:25;25.20;;;22.75;;
51692;SDS011;37777;53.066;21.638;2023-12-20T20:27:32;22.38;;;20.50;;
51692;SDS011;37777;53.066;21.638;2023-12-20T20:34:35;19.90;;;18.38;;
51692;SDS011;37777;53.066;21.638;2023-12-20T20:41:36;28.85;;;22.40;;
51692;SDS011;37777;53.066;21.638;2023-12-20T20:48:37;23.77;;;22.15;;
51692;SDS011;37777;53.066;21.638;2023-12-20T20:55:51;33.95;;;31.42;;
51692;SDS011;37777;53.066;21.638;2023-12-20T21:02:53;33.58;;;31.35;;
51692;SDS011;37777;53.066;21.638;2023-12-20T21:09:54;31.40;;;29.35;;
51692;SDS011;37777;53.066;21.638;2023-12-20T21:16:56;41.75;;;38.92;;
51692;SDS011;37777;53.066;21.638;2023-12-20T21:23:57;35.38;;;33.00;;
51692;SDS011;37777;53.066;21.638;2023-12-20T21:30:59;42.30;;;39.58;;
51692;SDS011;37777;53.066;21.638;2023-12-20T21:38:01;51.65;;;48.42;;
51692;SDS011;37777;53.066;21.638;2023-12-20T21:45:03;52.97;;;49.42;;
51692;SDS011;37777;53.066;21.638;2023-12-20T21:52:05;58.55;;;54.65;;
51692;SDS011;37777;53.066;21.638;2023-12-20T21:59:07;52.95;;;49.40;;
51692;SDS011;37777;53.066;21.638;2023-12-20T22:06:08;62.17;;;58.05;;
51692;SDS011;37777;53.066;21.638;2023-12-20T22:13:10;59.97;;;55.88;;
51692;SDS011;37777;53.066;21.638;2023-12-20T22:20:14;79.57;;;74.60;;
51692;SDS011;37777;53.066;21.638;2023-12-20T22:27:16;83.25;;;75.63;;
51692;SDS011;37777;53.066;21.638;2023-12-20T22:34:18;54.10;;;50.53;;
51692;SDS011;37777;53.066;21.638;2023-12-20T22:41:19;65.93;;;61.00;;
51692;SDS011;37777;53.066;21.638;2023-12-20T22:48:21;74.78;;;69.95;;
51692;SDS011;37777;53.066;21.638;2023-12-20T22:55:23;63.15;;;59.10;;
51692;SDS011;37777;53.066;21.638;2023-12-20T23:02:24;70.57;;;65.97;;
51692;SDS011;37777;53.066;21.638;2023-12-20T23:17:54;60.72;;;56.63;;
51692;SDS011;37777;53.066;21.638;2023-12-20T23:24:57;63.83;;;59.13;;
51692;SDS011;37777;53.066;21.638;2023-12-20T23:31:59;60.00;;;56.17;;
51692;SDS011;37777;53.066;21.638;2023-12-20T23:39:01;59.03;;;55.13;;
51692;SDS011;37777;53.066;21.638;2023-12-20T23:46:02;69.18;;;64.82;;
51692;SDS011;37777;53.066;21.638;2023-12-20T23:53:04;64.38;;;60.25;;
